sensor_id;sensor_type;location;lat;lon;timestamp;temperature;humidity
72604;DHT22;60645;56.968;24.196;2023-02-12T00:00:47;-0.10;89.20
72604;DHT22;60645;56.968;24.196;2023-02-12T00:03:14;-0.10;89.60
72604;DHT22;60645;56.968;24.196;2023-02-12T00:05:40;0.00;89.50
72604;DHT22;60645;56.968;24.196;2023-02-12T00:08:08;-0.10;89.90
72604;DHT22;60645;56.968;24.196;2023-02-12T00:10:41;0.00;89.70
72604;DHT22;60645;56.968;24.196;2023-02-12T00:13:10;-0.20;89.40
72604;DHT22;60645;56.968;24.196;2023-02-12T00:15:38;0.00;89.30
72604;DHT22;60645;56.968;24.196;2023-02-12T00:18:05;0.10;89.40
72604;DHT22;60645;56.968;24.196;2023-02-12T00:20:32;0.00;89.50
72604;DHT22;60645;56.968;24.196;2023-02-12T00:22:59;0.10;89.30
72604;DHT22;60645;56.968;24.196;2023-02-12T00:25:26;0.00;89.30
72604;DHT22;60645;56.968;24.196;2023-02-12T00:27:53;0.00;89.10
72604;DHT22;60645;56.968;24.196;2023-02-12T00:30:20;0.00;88.90
72604;DHT22;60645;56.968;24.196;2023-02-12T00:32:47;0.00;89.00
72604;DHT22;60645;56.968;24.196;2023-02-12T00:35:14;0.10;89.20
72604;DHT22;60645;56.968;24.196;2023-02-12T00:37:41;0.00;89.40
72604;DHT22;60645;56.968;24.196;2023-02-12T00:40:09;0.10;89.40
72604;DHT22;60645;56.968;24.196;2023-02-12T00:42:36;0.00;89.30
72604;DHT22;60645;56.968;24.196;2023-02-12T00:45:03;0.00;89.40
72604;DHT22;60645;56.968;24.196;2023-02-12T00:47:29;0.00;89.60
72604;DHT22;60645;56.968;24.196;2023-02-12T00:49:57;0.10;89.70
72604;DHT22;60645;56.968;24.196;2023-02-12T00:52:24;0.20;89.60
72604;DHT22;60645;56.968;24.196;2023-02-12T00:54:50;0.20;89.40
72604;DHT22;60645;56.968;24.196;2023-02-12T00:57:17;0.20;89.10
72604;DHT22;60645;56.968;24.196;2023-02-12T00:59:44;0.30;89.20
72604;DHT22;60645;56.968;24.196;2023-02-12T01:02:11;0.30;89.60
72604;DHT22;60645;56.968;24.196;2023-02-12T01:04:38;0.20;89.40
72604;DHT22;60645;56.968;24.196;2023-02-12T01:07:05;0.30;89.30
72604;DHT22;60645;56.968;24.196;2023-02-12T01:09:32;0.20;89.70
72604;DHT22;60645;56.968;24.196;2023-02-12T01:11:59;0.30;89.50
72604;DHT22;60645;56.968;24.196;2023-02-12T01:14:26;0.20;89.70
72604;DHT22;60645;56.968;24.196;2023-02-12T01:16:53;0.20;89.40
72604;DHT22;60645;56.968;24.196;2023-02-12T01:19:20;0.30;89.20
72604;DHT22;60645;56.968;24.196;2023-02-12T01:21:46;0.00;89.20
72604;DHT22;60645;56.968;24.196;2023-02-12T01:24:13;0.20;88.90
72604;DHT22;60645;56.968;24.196;2023-02-12T01:26:40;0.10;89.00
72604;DHT22;60645;56.968;24.196;2023-02-12T01:29:07;0.10;89.00
72604;DHT22;60645;56.968;24.196;2023-02-12T01:31:38;0.00;89.40
72604;DHT22;60645;56.968;24.196;2023-02-12T01:34:06;0.00;89.40
72604;DHT22;60645;56.968;24.196;2023-02-12T01:36:33;0.00;89.60
72604;DHT22;60645;56.968;24.196;2023-02-12T01:39:02;-0.10;90.00
72604;DHT22;60645;56.968;24.196;2023-02-12T01:41:33;0.10;89.70
72604;DHT22;60645;56.968;24.196;2023-02-12T01:46:42;0.10;89.30
72604;DHT22;60645;56.968;24.196;2023-02-12T01:49:19;0.10;89.40
72604;DHT22;60645;56.968;24.196;2023-02-12T01:51:52;0.10;89.60
72604;DHT22;60645;56.968;24.196;2023-02-12T01:54:21;0.20;89.10
72604;DHT22;60645;56.968;24.196;2023-02-12T01:56:51;0.30;88.70
72604;DHT22;60645;56.968;24.196;2023-02-12T01:59:19;0.10;88.60
72604;DHT22;60645;56.968;24.196;2023-02-12T02:01:46;0.10;88.40
72604;DHT22;60645;56.968;24.196;2023-02-12T02:04:20;0.20;88.00
72604;DHT22;60645;56.968;24.196;2023-02-12T02:07:04;0.10;89.00
72604;DHT22;60645;56.968;24.196;2023-02-12T02:09:34;0.30;89.70
72604;DHT22;60645;56.968;24.196;2023-02-12T02:12:02;0.30;88.00
72604;DHT22;60645;56.968;24.196;2023-02-12T02:14:50;0.20;88.50
72604;DHT22;60645;56.968;24.196;2023-02-12T02:17:41;0.30;87.80
72604;DHT22;60645;56.968;24.196;2023-02-12T02:28:30;-0.10;88.30
72604;DHT22;60645;56.968;24.196;2023-02-12T02:34:09;-0.10;88.50
72604;DHT22;60645;56.968;24.196;2023-02-12T02:42:10;-0.30;88.40
72604;DHT22;60645;56.968;24.196;2023-02-12T02:44:54;-0.20;88.90
72604;DHT22;60645;56.968;24.196;2023-02-12T02:47:32;-0.30;88.90
72604;DHT22;60645;56.968;24.196;2023-02-12T02:50:24;-0.40;89.10
72604;DHT22;60645;56.968;24.196;2023-02-12T02:52:56;-0.30;89.10
72604;DHT22;60645;56.968;24.196;2023-02-12T02:55:29;-0.20;89.40
72604;DHT22;60645;56.968;24.196;2023-02-12T02:58:05;-0.30;89.60
72604;DHT22;60645;56.968;24.196;2023-02-12T03:01:06;-0.30;89.80
72604;DHT22;60645;56.968;24.196;2023-02-12T03:03:54;-0.40;89.50
72604;DHT22;60645;56.968;24.196;2023-02-12T03:06:35;-0.30;89.60
72604;DHT22;60645;56.968;24.196;2023-02-12T03:09:17;-0.50;90.10
72604;DHT22;60645;56.968;24.196;2023-02-12T03:11:44;-0.50;89.80
72604;DHT22;60645;56.968;24.196;2023-02-12T03:14:21;-0.50;90.20
72604;DHT22;60645;56.968;24.196;2023-02-12T03:17:36;-0.60;90.10
72604;DHT22;60645;56.968;24.196;2023-02-12T03:19:54;-0.50;90.00
72604;DHT22;60645;56.968;24.196;2023-02-12T03:22:35;-0.70;90.20
72604;DHT22;60645;56.968;24.196;2023-02-12T03:25:11;-0.50;90.00
72604;DHT22;60645;56.968;24.196;2023-02-12T03:27:48;-0.60;90.20
72604;DHT22;60645;56.968;24.196;2023-02-12T03:30:19;-0.50;89.70
72604;DHT22;60645;56.968;24.196;2023-02-12T03:35:50;-0.60;89.80
72604;DHT22;60645;56.968;24.196;2023-02-12T03:38:43;-0.50;89.60
72604;DHT22;60645;56.968;24.196;2023-02-12T03:41:23;-0.60;89.60
72604;DHT22;60645;56.968;24.196;2023-02-12T03:43:54;-0.60;89.70
72604;DHT22;60645;56.968;24.196;2023-02-12T03:46:32;-0.70;90.10
72604;DHT22;60645;56.968;24.196;2023-02-12T03:49:08;-0.80;90.30
72604;DHT22;60645;56.968;24.196;2023-02-12T03:51:39;-0.70;90.30
72604;DHT22;60645;56.968;24.196;2023-02-12T03:54:09;-0.80;90.50
72604;DHT22;60645;56.968;24.196;2023-02-12T03:59:23;-0.60;90.60
72604;DHT22;60645;56.968;24.196;2023-02-12T04:01:52;-0.70;90.00
72604;DHT22;60645;56.968;24.196;2023-02-12T04:04:22;-0.70;89.60
72604;DHT22;60645;56.968;24.196;2023-02-12T04:06:49;-0.70;89.70
72604;DHT22;60645;56.968;24.196;2023-02-12T04:09:17;-0.70;89.70
72604;DHT22;60645;56.968;24.196;2023-02-12T04:17:35;-0.70;89.80
72604;DHT22;60645;56.968;24.196;2023-02-12T04:28:29;-1.00;90.60
72604;DHT22;60645;56.968;24.196;2023-02-12T04:31:05;-0.90;90.60
72604;DHT22;60645;56.968;24.196;2023-02-12T04:33:45;-1.00;90.60
72604;DHT22;60645;56.968;24.196;2023-02-12T04:36:20;-0.90;90.90
72604;DHT22;60645;56.968;24.196;2023-02-12T04:38:58;-0.80;91.00
72604;DHT22;60645;56.968;24.196;2023-02-12T04:41:26;-0.60;90.90
72604;DHT22;60645;56.968;24.196;2023-02-12T04:43:53;-0.50;90.80
72604;DHT22;60645;56.968;24.196;2023-02-12T04:46:20;-0.60;91.00
72604;DHT22;60645;56.968;24.196;2023-02-12T04:48:55;-0.60;91.40
72604;DHT22;60645;56.968;24.196;2023-02-12T04:51:23;-0.60;91.80
72604;DHT22;60645;56.968;24.196;2023-02-12T04:53:50;-0.60;92.20
72604;DHT22;60645;56.968;24.196;2023-02-12T04:56:17;-0.50;92.10
72604;DHT22;60645;56.968;24.196;2023-02-12T04:58:44;-0.50;92.70
72604;DHT22;60645;56.968;24.196;2023-02-12T05:01:11;-0.70;93.00
72604;DHT22;60645;56.968;24.196;2023-02-12T05:03:38;-0.90;93.30
72604;DHT22;60645;56.968;24.196;2023-02-12T05:06:06;-0.80;94.00
72604;DHT22;60645;56.968;24.196;2023-02-12T05:08:34;-0.70;94.10
72604;DHT22;60645;56.968;24.196;2023-02-12T05:11:10;-0.90;94.20
72604;DHT22;60645;56.968;24.196;2023-02-12T05:13:37;-0.90;94.50
72604;DHT22;60645;56.968;24.196;2023-02-12T05:16:06;-1.00;94.70
72604;DHT22;60645;56.968;24.196;2023-02-12T05:18:35;-1.10;95.00
72604;DHT22;60645;56.968;24.196;2023-02-12T05:21:03;-1.00;95.20
72604;DHT22;60645;56.968;24.196;2023-02-12T05:23:33;-1.10;95.30
72604;DHT22;60645;56.968;24.196;2023-02-12T05:26:01;-1.00;95.40
72604;DHT22;60645;56.968;24.196;2023-02-12T05:28:29;-1.10;95.50
72604;DHT22;60645;56.968;24.196;2023-02-12T05:31:05;-1.30;95.60
72604;DHT22;60645;56.968;24.196;2023-02-12T05:33:32;-1.10;96.00
72604;DHT22;60645;56.968;24.196;2023-02-12T05:36:10;-1.30;96.10
72604;DHT22;60645;56.968;24.196;2023-02-12T05:38:37;-1.00;96.40
72604;DHT22;60645;56.968;24.196;2023-02-12T05:41:06;-1.00;96.50
72604;DHT22;60645;56.968;24.196;2023-02-12T05:43:33;-1.30;96.30
72604;DHT22;60645;56.968;24.196;2023-02-12T05:46:02;-1.10;96.40
72604;DHT22;60645;56.968;24.196;2023-02-12T05:48:30;-1.20;96.50
72604;DHT22;60645;56.968;24.196;2023-02-12T05:51:05;-0.90;96.60
72604;DHT22;60645;56.968;24.196;2023-02-12T05:53:33;-1.00;96.60
72604;DHT22;60645;56.968;24.196;2023-02-12T05:56:19;-0.80;96.40
72604;DHT22;60645;56.968;24.196;2023-02-12T05:58:50;-0.80;96.40
72604;DHT22;60645;56.968;24.196;2023-02-12T06:01:21;-0.60;96.00
72604;DHT22;60645;56.968;24.196;2023-02-12T06:03:49;-0.60;95.80
72604;DHT22;60645;56.968;24.196;2023-02-12T06:06:16;-0.70;95.60
72604;DHT22;60645;56.968;24.196;2023-02-12T06:08:47;-0.40;95.50
72604;DHT22;60645;56.968;24.196;2023-02-12T06:11:15;-0.40;95.30
72604;DHT22;60645;56.968;24.196;2023-02-12T06:13:43;-0.30;95.30
72604;DHT22;60645;56.968;24.196;2023-02-12T06:16:19;-0.30;94.90
72604;DHT22;60645;56.968;24.196;2023-02-12T06:18:48;-0.20;94.60
72604;DHT22;60645;56.968;24.196;2023-02-12T06:21:16;-0.10;94.00
72604;DHT22;60645;56.968;24.196;2023-02-12T06:23:43;0.00;92.90
72604;DHT22;60645;56.968;24.196;2023-02-12T06:26:10;0.00;92.90
72604;DHT22;60645;56.968;24.196;2023-02-12T06:28:37;0.00;93.10
72604;DHT22;60645;56.968;24.196;2023-02-12T06:31:05;0.00;93.00
72604;DHT22;60645;56.968;24.196;2023-02-12T06:33:31;0.00;92.90
72604;DHT22;60645;56.968;24.196;2023-02-12T06:36:02;0.40;91.70
72604;DHT22;60645;56.968;24.196;2023-02-12T06:38:30;0.60;90.90
72604;DHT22;60645;56.968;24.196;2023-02-12T06:41:01;1.30;88.40
72604;DHT22;60645;56.968;24.196;2023-02-12T06:43:28;1.80;86.00
72604;DHT22;60645;56.968;24.196;2023-02-12T06:45:55;2.10;84.60
72604;DHT22;60645;56.968;24.196;2023-02-12T06:48:22;2.20;83.50
72604;DHT22;60645;56.968;24.196;2023-02-12T06:50:49;2.10;83.00
72604;DHT22;60645;56.968;24.196;2023-02-12T06:53:16;2.00;82.90
72604;DHT22;60645;56.968;24.196;2023-02-12T06:55:43;2.00;83.10
72604;DHT22;60645;56.968;24.196;2023-02-12T06:58:10;2.00;83.50
72604;DHT22;60645;56.968;24.196;2023-02-12T07:00:36;2.20;83.00
72604;DHT22;60645;56.968;24.196;2023-02-12T07:03:03;2.40;81.50
72604;DHT22;60645;56.968;24.196;2023-02-12T07:05:30;2.40;81.70
72604;DHT22;60645;56.968;24.196;2023-02-12T07:07:59;2.10;81.50
72604;DHT22;60645;56.968;24.196;2023-02-12T07:10:26;2.00;81.70
72604;DHT22;60645;56.968;24.196;2023-02-12T07:12:53;1.70;82.50
72604;DHT22;60645;56.968;24.196;2023-02-12T07:15:20;1.40;83.10
72604;DHT22;60645;56.968;24.196;2023-02-12T07:17:47;1.50;83.00
72604;DHT22;60645;56.968;24.196;2023-02-12T07:20:13;1.60;82.10
72604;DHT22;60645;56.968;24.196;2023-02-12T07:22:40;1.70;82.10
72604;DHT22;60645;56.968;24.196;2023-02-12T07:25:07;1.50;82.40
72604;DHT22;60645;56.968;24.196;2023-02-12T07:27:37;1.80;82.00
72604;DHT22;60645;56.968;24.196;2023-02-12T07:30:05;1.80;82.10
72604;DHT22;60645;56.968;24.196;2023-02-12T07:32:33;1.80;81.80
72604;DHT22;60645;56.968;24.196;2023-02-12T07:35:00;1.60;82.40
72604;DHT22;60645;56.968;24.196;2023-02-12T07:37:27;1.90;80.70
72604;DHT22;60645;56.968;24.196;2023-02-12T07:39:54;2.10;80.30
72604;DHT22;60645;56.968;24.196;2023-02-12T07:42:24;2.30;80.20
72604;DHT22;60645;56.968;24.196;2023-02-12T07:44:53;2.30;79.40
72604;DHT22;60645;56.968;24.196;2023-02-12T07:47:25;2.60;79.40
72604;DHT22;60645;56.968;24.196;2023-02-12T07:49:55;2.50;78.60
72604;DHT22;60645;56.968;24.196;2023-02-12T07:52:22;2.70;78.40
72604;DHT22;60645;56.968;24.196;2023-02-12T07:54:49;2.90;77.30
72604;DHT22;60645;56.968;24.196;2023-02-12T07:57:16;2.60;77.80
72604;DHT22;60645;56.968;24.196;2023-02-12T07:59:43;3.00;77.90
72604;DHT22;60645;56.968;24.196;2023-02-12T08:02:10;3.20;76.60
72604;DHT22;60645;56.968;24.196;2023-02-12T08:04:37;3.10;77.70
72604;DHT22;60645;56.968;24.196;2023-02-12T08:07:04;3.30;76.10
72604;DHT22;60645;56.968;24.196;2023-02-12T08:09:30;3.00;77.00
72604;DHT22;60645;56.968;24.196;2023-02-12T08:11:57;3.50;75.80
72604;DHT22;60645;56.968;24.196;2023-02-12T08:14:25;3.90;74.60
72604;DHT22;60645;56.968;24.196;2023-02-12T08:16:52;4.30;72.60
72604;DHT22;60645;56.968;24.196;2023-02-12T08:19:21;4.90;70.70
72604;DHT22;60645;56.968;24.196;2023-02-12T08:21:53;5.10;69.50
72604;DHT22;60645;56.968;24.196;2023-02-12T08:24:20;5.20;68.70
72604;DHT22;60645;56.968;24.196;2023-02-12T08:26:50;4.90;70.00
72604;DHT22;60645;56.968;24.196;2023-02-12T08:29:19;4.80;68.70
72604;DHT22;60645;56.968;24.196;2023-02-12T08:31:49;4.50;70.40
72604;DHT22;60645;56.968;24.196;2023-02-12T08:34:22;4.20;70.90
72604;DHT22;60645;56.968;24.196;2023-02-12T08:36:52;4.00;71.40
72604;DHT22;60645;56.968;24.196;2023-02-12T08:39:20;3.80;72.00
72604;DHT22;60645;56.968;24.196;2023-02-12T08:41:48;3.60;73.10
72604;DHT22;60645;56.968;24.196;2023-02-12T08:44:16;3.60;74.70
72604;DHT22;60645;56.968;24.196;2023-02-12T08:46:45;3.50;74.20
72604;DHT22;60645;56.968;24.196;2023-02-12T08:49:15;3.70;74.90
72604;DHT22;60645;56.968;24.196;2023-02-12T08:51:45;4.40;72.20
72604;DHT22;60645;56.968;24.196;2023-02-12T08:54:24;5.10;69.80
72604;DHT22;60645;56.968;24.196;2023-02-12T08:56:56;5.60;67.20
72604;DHT22;60645;56.968;24.196;2023-02-12T08:59:23;5.90;66.20
72604;DHT22;60645;56.968;24.196;2023-02-12T09:01:51;6.20;65.80
72604;DHT22;60645;56.968;24.196;2023-02-12T09:04:24;6.30;64.70
72604;DHT22;60645;56.968;24.196;2023-02-12T09:06:51;6.90;63.70
72604;DHT22;60645;56.968;24.196;2023-02-12T09:09:19;7.50;61.20
72604;DHT22;60645;56.968;24.196;2023-02-12T09:11:47;7.10;61.50
72604;DHT22;60645;56.968;24.196;2023-02-12T09:14:16;6.70;63.20
72604;DHT22;60645;56.968;24.196;2023-02-12T09:16:44;6.50;64.00
72604;DHT22;60645;56.968;24.196;2023-02-12T09:19:12;6.20;64.90
72604;DHT22;60645;56.968;24.196;2023-02-12T09:21:40;6.10;64.90
72604;DHT22;60645;56.968;24.196;2023-02-12T09:24:08;5.60;66.30
72604;DHT22;60645;56.968;24.196;2023-02-12T09:26:35;5.30;67.00
72604;DHT22;60645;56.968;24.196;2023-02-12T09:29:03;5.00;68.20
72604;DHT22;60645;56.968;24.196;2023-02-12T09:31:31;4.80;68.50
72604;DHT22;60645;56.968;24.196;2023-02-12T09:34:01;4.40;69.80
72604;DHT22;60645;56.968;24.196;2023-02-12T09:36:29;4.50;70.90
72604;DHT22;60645;56.968;24.196;2023-02-12T09:38:56;4.50;70.60
72604;DHT22;60645;56.968;24.196;2023-02-12T09:47:03;4.90;69.10
72604;DHT22;60645;56.968;24.196;2023-02-12T09:52:23;4.80;68.90
72604;DHT22;60645;56.968;24.196;2023-02-12T09:54:52;4.70;69.30
72604;DHT22;60645;56.968;24.196;2023-02-12T09:57:29;4.70;69.40
72604;DHT22;60645;56.968;24.196;2023-02-12T10:00:06;5.00;70.20
72604;DHT22;60645;56.968;24.196;2023-02-12T10:02:38;4.90;69.60
72604;DHT22;60645;56.968;24.196;2023-02-12T10:05:18;4.80;70.40
72604;DHT22;60645;56.968;24.196;2023-02-12T10:22:12;5.00;68.70
72604;DHT22;60645;56.968;24.196;2023-02-12T10:30:30;4.50;70.50
72604;DHT22;60645;56.968;24.196;2023-02-12T10:44:12;3.90;72.40
72604;DHT22;60645;56.968;24.196;2023-02-12T10:46:39;3.90;71.90
72604;DHT22;60645;56.968;24.196;2023-02-12T10:49:09;4.10;71.90
72604;DHT22;60645;56.968;24.196;2023-02-12T10:54:45;3.90;72.40
72604;DHT22;60645;56.968;24.196;2023-02-12T10:57:24;4.20;71.80
72604;DHT22;60645;56.968;24.196;2023-02-12T10:59:53;4.30;71.00
72604;DHT22;60645;56.968;24.196;2023-02-12T11:02:31;4.10;71.80
72604;DHT22;60645;56.968;24.196;2023-02-12T11:05:00;4.10;71.90
72604;DHT22;60645;56.968;24.196;2023-02-12T11:07:49;4.50;71.50
72604;DHT22;60645;56.968;24.196;2023-02-12T11:10:20;4.60;70.30
72604;DHT22;60645;56.968;24.196;2023-02-12T11:12:48;4.70;70.70
72604;DHT22;60645;56.968;24.196;2023-02-12T11:15:17;4.70;70.20
72604;DHT22;60645;56.968;24.196;2023-02-12T11:18:00;4.80;69.80
72604;DHT22;60645;56.968;24.196;2023-02-12T11:21:00;4.70;69.40
72604;DHT22;60645;56.968;24.196;2023-02-12T11:23:41;4.80;68.90
72604;DHT22;60645;56.968;24.196;2023-02-12T11:29:01;5.10;66.80
72604;DHT22;60645;56.968;24.196;2023-02-12T11:31:31;5.10;67.20
72604;DHT22;60645;56.968;24.196;2023-02-12T11:36:36;5.40;65.00
72604;DHT22;60645;56.968;24.196;2023-02-12T11:39:04;5.60;64.60
72604;DHT22;60645;56.968;24.196;2023-02-12T11:41:38;5.70;64.50
72604;DHT22;60645;56.968;24.196;2023-02-12T11:44:21;5.70;64.20
72604;DHT22;60645;56.968;24.196;2023-02-12T11:46:56;5.40;63.90
72604;DHT22;60645;56.968;24.196;2023-02-12T11:49:29;5.30;65.60
72604;DHT22;60645;56.968;24.196;2023-02-12T11:51:59;4.80;66.50
72604;DHT22;60645;56.968;24.196;2023-02-12T11:54:29;4.90;66.90
72604;DHT22;60645;56.968;24.196;2023-02-12T11:56:56;4.50;67.70
72604;DHT22;60645;56.968;24.196;2023-02-12T11:59:35;4.60;67.60
72604;DHT22;60645;56.968;24.196;2023-02-12T12:02:18;4.90;67.20
72604;DHT22;60645;56.968;24.196;2023-02-12T12:04:50;4.50;67.20
72604;DHT22;60645;56.968;24.196;2023-02-12T12:07:24;4.60;68.30
72604;DHT22;60645;56.968;24.196;2023-02-12T12:09:56;4.70;68.40
72604;DHT22;60645;56.968;24.196;2023-02-12T12:12:42;4.80;68.30
72604;DHT22;60645;56.968;24.196;2023-02-12T12:15:22;4.80;67.50
72604;DHT22;60645;56.968;24.196;2023-02-12T12:23:45;5.00;67.50
72604;DHT22;60645;56.968;24.196;2023-02-12T12:26:22;5.00;68.20
72604;DHT22;60645;56.968;24.196;2023-02-12T12:28:59;5.00;68.40
72604;DHT22;60645;56.968;24.196;2023-02-12T12:31:36;4.80;68.30
72604;DHT22;60645;56.968;24.196;2023-02-12T12:34:14;4.80;69.00
72604;DHT22;60645;56.968;24.196;2023-02-12T12:39:44;4.80;68.90
72604;DHT22;60645;56.968;24.196;2023-02-12T12:53:21;4.50;71.40
72604;DHT22;60645;56.968;24.196;2023-02-12T13:07:17;4.00;72.60
72604;DHT22;60645;56.968;24.196;2023-02-12T13:10:01;3.90;72.80
72604;DHT22;60645;56.968;24.196;2023-02-12T13:15:39;3.90;72.70
72604;DHT22;60645;56.968;24.196;2023-02-12T13:29:27;4.10;71.40
72604;DHT22;60645;56.968;24.196;2023-02-12T13:32:45;4.40;71.10
72604;DHT22;60645;56.968;24.196;2023-02-12T13:34:53;4.10;71.90
72604;DHT22;60645;56.968;24.196;2023-02-12T13:37:37;4.00;72.30
72604;DHT22;60645;56.968;24.196;2023-02-12T13:40:07;4.10;72.80
72604;DHT22;60645;56.968;24.196;2023-02-12T13:42:55;4.10;72.70
72604;DHT22;60645;56.968;24.196;2023-02-12T13:56:48;3.80;74.10
72604;DHT22;60645;56.968;24.196;2023-02-12T14:07:20;3.80;75.50
72604;DHT22;60645;56.968;24.196;2023-02-12T14:14:56;3.60;76.50
72604;DHT22;60645;56.968;24.196;2023-02-12T14:28:34;3.30;77.70
72604;DHT22;60645;56.968;24.196;2023-02-12T14:33:46;3.60;78.40
72604;DHT22;60645;56.968;24.196;2023-02-12T14:39:05;3.40;78.80
72604;DHT22;60645;56.968;24.196;2023-02-12T14:44:55;3.70;79.40
72604;DHT22;60645;56.968;24.196;2023-02-12T14:49:56;3.50;79.30
72604;DHT22;60645;56.968;24.196;2023-02-12T14:52:27;3.40;79.40
72604;DHT22;60645;56.968;24.196;2023-02-12T14:54:59;3.40;79.60
72604;DHT22;60645;56.968;24.196;2023-02-12T14:57:30;3.30;79.90
72604;DHT22;60645;56.968;24.196;2023-02-12T15:02:54;3.20;80.50
72604;DHT22;60645;56.968;24.196;2023-02-12T15:05:36;3.00;80.80
72604;DHT22;60645;56.968;24.196;2023-02-12T15:14:23;3.00;81.60
72604;DHT22;60645;56.968;24.196;2023-02-12T15:22:18;2.90;82.50
72604;DHT22;60645;56.968;24.196;2023-02-12T15:24:47;2.80;82.80
72604;DHT22;60645;56.968;24.196;2023-02-12T15:27:15;2.70;83.20
72604;DHT22;60645;56.968;24.196;2023-02-12T15:29:45;2.60;83.60
72604;DHT22;60645;56.968;24.196;2023-02-12T15:32:24;2.70;83.80
72604;DHT22;60645;56.968;24.196;2023-02-12T15:34:52;2.50;84.10
72604;DHT22;60645;56.968;24.196;2023-02-12T15:37:29;2.50;84.50
72604;DHT22;60645;56.968;24.196;2023-02-12T15:39:59;2.50;84.60
72604;DHT22;60645;56.968;24.196;2023-02-12T15:42:30;2.30;85.10
72604;DHT22;60645;56.968;24.196;2023-02-12T15:47:42;2.40;85.60
72604;DHT22;60645;56.968;24.196;2023-02-12T15:50:16;2.20;85.90
72604;DHT22;60645;56.968;24.196;2023-02-12T15:52:45;2.20;85.90
72604;DHT22;60645;56.968;24.196;2023-02-12T15:55:25;2.20;86.20
72604;DHT22;60645;56.968;24.196;2023-02-12T15:58:00;2.20;86.50
72604;DHT22;60645;56.968;24.196;2023-02-12T16:00:40;2.10;86.60
72604;DHT22;60645;56.968;24.196;2023-02-12T16:03:27;2.20;86.80
72604;DHT22;60645;56.968;24.196;2023-02-12T16:06:11;2.20;87.10
72604;DHT22;60645;56.968;24.196;2023-02-12T16:08:42;2.20;87.20
72604;DHT22;60645;56.968;24.196;2023-02-12T16:11:10;2.00;87.20
72604;DHT22;60645;56.968;24.196;2023-02-12T16:13:50;2.30;86.90
72604;DHT22;60645;56.968;24.196;2023-02-12T16:21:45;2.40;86.60
72604;DHT22;60645;56.968;24.196;2023-02-12T16:26:55;2.50;86.40
72604;DHT22;60645;56.968;24.196;2023-02-12T16:29:23;2.50;86.40
72604;DHT22;60645;56.968;24.196;2023-02-12T16:31:59;2.60;86.50
72604;DHT22;60645;56.968;24.196;2023-02-12T16:34:33;2.50;86.70
72604;DHT22;60645;56.968;24.196;2023-02-12T16:37:01;2.60;86.80
72604;DHT22;60645;56.968;24.196;2023-02-12T16:42:15;2.60;86.60
72604;DHT22;60645;56.968;24.196;2023-02-12T16:44:46;2.70;86.90
72604;DHT22;60645;56.968;24.196;2023-02-12T16:47:20;2.60;87.10
72604;DHT22;60645;56.968;24.196;2023-02-12T16:49:56;2.60;87.30
72604;DHT22;60645;56.968;24.196;2023-02-12T16:52:39;2.60;87.10
72604;DHT22;60645;56.968;24.196;2023-02-12T16:55:13;2.80;87.30
72604;DHT22;60645;56.968;24.196;2023-02-12T16:57:40;2.80;88.40
72604;DHT22;60645;56.968;24.196;2023-02-12T17:00:10;2.80;88.00
72604;DHT22;60645;56.968;24.196;2023-02-12T17:02:37;2.90;87.30
72604;DHT22;60645;56.968;24.196;2023-02-12T17:05:04;2.90;87.00
72604;DHT22;60645;56.968;24.196;2023-02-12T17:07:33;2.80;87.20
72604;DHT22;60645;56.968;24.196;2023-02-12T17:10:00;3.00;87.10
72604;DHT22;60645;56.968;24.196;2023-02-12T17:12:27;2.90;87.00
72604;DHT22;60645;56.968;24.196;2023-02-12T17:14:55;3.00;87.40
72604;DHT22;60645;56.968;24.196;2023-02-12T17:17:22;2.90;87.20
72604;DHT22;60645;56.968;24.196;2023-02-12T17:19:49;3.00;87.70
72604;DHT22;60645;56.968;24.196;2023-02-12T17:22:23;2.90;87.90
72604;DHT22;60645;56.968;24.196;2023-02-12T17:24:51;3.00;87.90
72604;DHT22;60645;56.968;24.196;2023-02-12T17:27:19;3.00;87.90
72604;DHT22;60645;56.968;24.196;2023-02-12T17:29:46;3.00;88.40
72604;DHT22;60645;56.968;24.196;2023-02-12T17:32:13;2.90;88.50
72604;DHT22;60645;56.968;24.196;2023-02-12T17:34:41;2.90;88.60
72604;DHT22;60645;56.968;24.196;2023-02-12T17:37:15;2.80;88.60
72604;DHT22;60645;56.968;24.196;2023-02-12T17:39:42;2.90;88.40
72604;DHT22;60645;56.968;24.196;2023-02-12T17:42:09;3.00;88.50
72604;DHT22;60645;56.968;24.196;2023-02-12T17:44:37;3.10;88.50
72604;DHT22;60645;56.968;24.196;2023-02-12T17:47:05;3.10;88.40
72604;DHT22;60645;56.968;24.196;2023-02-12T17:49:33;2.80;88.60
72604;DHT22;60645;56.968;24.196;2023-02-12T17:52:01;2.90;88.80
72604;DHT22;60645;56.968;24.196;2023-02-12T17:54:31;2.90;88.90
72604;DHT22;60645;56.968;24.196;2023-02-12T17:56:58;2.90;88.80
72604;DHT22;60645;56.968;24.196;2023-02-12T17:59:25;3.00;89.00
72604;DHT22;60645;56.968;24.196;2023-02-12T18:01:52;2.90;89.00
72604;DHT22;60645;56.968;24.196;2023-02-12T18:04:19;2.90;89.50
72604;DHT22;60645;56.968;24.196;2023-02-12T18:06:46;3.00;89.50
72604;DHT22;60645;56.968;24.196;2023-02-12T18:09:13;2.80;89.80
72604;DHT22;60645;56.968;24.196;2023-02-12T18:11:40;3.00;89.80
72604;DHT22;60645;56.968;24.196;2023-02-12T18:14:10;2.80;89.70
72604;DHT22;60645;56.968;24.196;2023-02-12T18:16:37;3.00;89.70
72604;DHT22;60645;56.968;24.196;2023-02-12T18:19:04;3.00;90.00
72604;DHT22;60645;56.968;24.196;2023-02-12T18:21:31;3.00;90.00
72604;DHT22;60645;56.968;24.196;2023-02-12T18:24:00;3.00;90.30
72604;DHT22;60645;56.968;24.196;2023-02-12T18:26:28;3.20;90.30
72604;DHT22;60645;56.968;24.196;2023-02-12T18:28:56;3.00;90.40
72604;DHT22;60645;56.968;24.196;2023-02-12T18:31:24;2.90;90.50
72604;DHT22;60645;56.968;24.196;2023-02-12T18:33:51;3.00;90.70
72604;DHT22;60645;56.968;24.196;2023-02-12T18:36:19;2.90;90.80
72604;DHT22;60645;56.968;24.196;2023-02-12T18:38:48;3.10;90.80
72604;DHT22;60645;56.968;24.196;2023-02-12T18:41:33;2.90;91.00
72604;DHT22;60645;56.968;24.196;2023-02-12T18:44:01;3.20;91.00
72604;DHT22;60645;56.968;24.196;2023-02-12T18:46:29;3.20;91.00
72604;DHT22;60645;56.968;24.196;2023-02-12T18:48:57;2.90;91.20
72604;DHT22;60645;56.968;24.196;2023-02-12T18:51:26;3.00;91.20
72604;DHT22;60645;56.968;24.196;2023-02-12T18:54:01;3.00;91.20
72604;DHT22;60645;56.968;24.196;2023-02-12T18:56:30;3.00;91.00
72604;DHT22;60645;56.968;24.196;2023-02-12T18:59:00;3.10;91.10
72604;DHT22;60645;56.968;24.196;2023-02-12T19:01:27;3.30;91.10
72604;DHT22;60645;56.968;24.196;2023-02-12T19:03:57;3.20;91.30
72604;DHT22;60645;56.968;24.196;2023-02-12T19:06:30;3.20;91.40
72604;DHT22;60645;56.968;24.196;2023-02-12T19:08:59;3.30;91.40
72604;DHT22;60645;56.968;24.196;2023-02-12T19:11:28;3.20;91.50
72604;DHT22;60645;56.968;24.196;2023-02-12T19:13:55;3.30;91.50
72604;DHT22;60645;56.968;24.196;2023-02-12T19:16:25;3.30;91.60
72604;DHT22;60645;56.968;24.196;2023-02-12T19:18:54;3.30;91.60